Time;durP1;ratioP1;P1;durP2;ratioP2;P2;SDS_P1;SDS_P2;PMS_P1;PMS_P2;Temp;Humidity;BMP_temperature;BMP_pressure;BME280_temperature;BME280_humidity;BME280_pressure;Samples;Min_cycle;Max_cycle;Signal;HPM_P1;HPM_P2
2021/08/19 00:00:53;;;;;;;5.45;2.60;;;16.90;99.90;;;16.56;92.09;101517.09;4150197;28;20025;-75
2021/08/19 00:02:55;;;;;;;6.85;2.80;;;16.90;99.90;;;16.63;91.44;101511.91;4135261;28;20034;-75
2021/08/19 00:04:56;;;;;;;8.88;3.03;;;16.90;99.90;;;16.56;91.87;101515.28;4133594;28;20034;-75
2021/08/19 00:06:56;;;;;;;4.10;2.38;;;16.90;99.90;;;16.58;92.26;101521.25;4135516;28;20030;-75
2021/08/19 00:08:57;;;;;;;5.90;3.15;;;16.90;99.90;;;16.56;92.31;101512.63;4137263;28;20034;-75
2021/08/19 00:10:58;;;;;;;8.65;2.90;;;16.90;99.90;;;16.55;92.21;101504.78;4137282;28;20037;-75
2021/08/19 00:13:00;;;;;;;3.70;3.10;;;16.90;99.90;;;16.51;92.71;101509.63;4121002;28;20063;-75
2021/08/19 00:15:02;;;;;;;6.60;2.63;;;16.90;99.90;;;16.42;92.96;101494.69;4124353;28;20457;-76
2021/08/19 00:17:05;;;;;;;6.40;3.03;;;16.80;99.90;;;16.59;92.79;101511.44;4137271;28;20031;-76
2021/08/19 00:19:06;;;;;;;5.63;2.50;;;16.90;99.90;;;16.56;92.94;101511.78;4137197;28;20097;-76
2021/08/19 00:21:08;;;;;;;7.38;3.00;;;16.80;99.90;;;16.52;93.18;101500.59;4136917;28;20074;-76
2021/08/19 00:23:09;;;;;;;6.07;3.13;;;16.90;99.90;;;16.70;92.21;101502.19;4153222;28;20029;-75
2021/08/19 00:25:11;;;;;;;4.88;2.38;;;16.80;99.90;;;16.65;92.64;101493.91;4129610;28;20026;-75
2021/08/19 00:27:12;;;;;;;6.03;2.90;;;16.90;99.90;;;16.68;92.32;101493.56;4120896;28;20038;-75
2021/08/19 00:29:13;;;;;;;5.00;3.13;;;16.90;99.90;;;16.66;92.67;101492.91;4136535;28;20034;-75
2021/08/19 00:31:14;;;;;;;9.07;3.00;;;16.90;99.90;;;16.56;93.25;101503.78;4120963;28;20375;-75
2021/08/19 00:33:15;;;;;;;4.90;2.50;;;16.80;99.90;;;16.72;92.56;101492.19;4122161;28;20086;-75
2021/08/19 00:35:16;;;;;;;5.18;3.15;;;16.90;99.90;;;16.66;91.87;101491.09;4130974;28;20054;-75
2021/08/19 00:37:17;;;;;;;6.28;2.92;;;16.90;99.90;;;16.61;92.72;101492.63;4136772;28;20037;-75
2021/08/19 00:39:18;;;;;;;3.03;2.05;;;16.90;99.90;;;16.45;93.53;101480.19;4138158;28;20026;-76
2021/08/19 00:41:21;;;;;;;4.47;3.35;;;16.80;99.90;;;16.43;94.23;101485.69;4138065;28;20019;-75
2021/08/19 00:43:22;;;;;;;4.85;2.90;;;16.80;99.90;;;16.48;94.33;101485.19;4120511;28;20030;-76
2021/08/19 00:45:23;;;;;;;5.65;3.22;;;16.80;99.90;;;16.43;94.09;101476.88;4136355;28;20053;-75
2021/08/19 00:47:29;;;;;;;5.90;3.05;;;16.70;99.90;;;16.36;94.50;101479.44;4120576;28;20030;-76
2021/08/19 00:49:30;;;;;;;5.82;2.90;;;16.80;99.90;;;16.33;94.64;101468.28;4120484;28;20034;-76
2021/08/19 00:51:37;;;;;;;7.25;3.13;;;16.70;99.90;;;16.32;95.07;101471.94;4153183;28;20030;-76
2021/08/19 00:53:38;;;;;;;4.63;3.15;;;16.70;99.90;;;16.42;94.90;101484.06;4120698;28;20022;-76
2021/08/19 00:55:40;;;;;;;4.32;2.47;;;16.70;99.90;;;16.43;95.26;101483.03;4136369;28;20340;-76
2021/08/19 00:57:42;;;;;;;6.15;3.33;;;16.70;99.90;;;16.47;95.22;101484.34;4120588;28;20039;-76
2021/08/19 00:59:43;;;;;;;5.25;3.25;;;16.70;99.90;;;16.51;94.96;101474.16;4135990;28;20038;-76
2021/08/19 01:01:44;;;;;;;7.57;3.45;;;16.70;99.90;;;16.45;94.44;101462.38;4152734;28;20089;-76
2021/08/19 01:03:45;;;;;;;5.47;3.13;;;16.70;99.90;;;16.42;94.69;101478.72;4136595;28;20401;-76
2021/08/19 01:05:46;;;;;;;6.53;3.10;;;16.70;99.90;;;16.44;94.79;101476.69;4136634;28;20034;-76
2021/08/19 01:07:47;;;;;;;6.25;2.70;;;16.70;99.90;;;16.38;95.04;101472.09;4137288;28;20030;-76
2021/08/19 01:09:48;;;;;;;6.25;3.80;;;16.70;99.90;;;16.43;94.95;101466.22;4137579;28;20037;-76
2021/08/19 01:11:49;;;;;;;7.13;3.15;;;16.70;99.90;;;16.46;95.14;101468.53;4120269;28;20030;-76
2021/08/19 01:13:50;;;;;;;4.93;2.80;;;16.70;99.90;;;16.43;94.84;101459.06;4120157;28;20430;-76
2021/08/19 01:15:51;;;;;;;4.15;2.45;;;16.70;99.90;;;16.41;95.37;101461.06;4120240;28;20038;-76
2021/08/19 01:17:59;;;;;;;5.57;2.40;;;16.70;99.90;;;16.38;95.22;101464.09;4150544;28;20113;-76
2021/08/19 01:20:00;;;;;;;5.05;2.78;;;16.70;99.90;;;16.35;95.69;101455.63;4119271;28;20066;-76
2021/08/19 01:22:01;;;;;;;5.38;2.97;;;16.60;99.90;;;16.45;95.50;101446.41;4137221;28;20026;-76
2021/08/19 01:24:02;;;;;;;5.10;3.25;;;16.70;99.90;;;16.69;93.79;101458.75;4137494;28;20030;-76
2021/08/19 01:26:09;;;;;;;8.25;2.75;;;16.70;99.90;;;16.51;94.14;101447.53;4122288;28;20048;-76
2021/08/19 01:28:10;;;;;;;3.80;2.67;;;16.80;99.90;;;16.58;93.43;101452.00;4121367;28;20041;-76
2021/08/19 01:30:11;;;;;;;6.57;3.13;;;16.80;99.90;;;16.43;94.39;101442.25;4120791;28;20023;-76
2021/08/19 01:32:12;;;;;;;5.78;2.90;;;16.80;99.90;;;16.40;95.32;101451.41;4121309;28;20493;-76
2021/08/19 01:34:13;;;;;;;5.88;2.97;;;16.70;99.90;;;16.59;94.51;101445.66;4122723;28;20022;-76
2021/08/19 01:36:15;;;;;;;4.00;2.67;;;16.70;99.90;;;16.49;94.90;101450.34;4146947;28;20030;-76
2021/08/19 01:38:16;;;;;;;7.63;3.53;;;16.80;99.90;;;16.45;95.14;101442.91;4119963;28;20035;-76
2021/08/19 01:40:17;;;;;;;4.22;2.95;;;16.70;99.90;;;16.39;95.74;101440.97;4119844;28;20462;-75
2021/08/19 01:42:18;;;;;;;4.05;2.65;;;16.70;99.90;;;16.47;95.27;101447.06;4119677;28;20573;-76
2021/08/19 01:44:19;;;;;;;4.10;2.70;;;16.70;99.90;;;16.43;94.79;101437.75;4135471;28;20054;-75
2021/08/19 01:46:21;;;;;;;3.53;3.00;;;16.70;99.90;;;16.25;94.92;101437.19;4120988;28;20034;-76
2021/08/19 01:48:22;;;;;;;3.75;2.53;;;16.70;99.90;;;16.31;95.21;101448.97;4119549;28;20035;-76
2021/08/19 01:50:23;;;;;;;4.40;2.58;;;16.70;99.90;;;16.22;95.73;101442.88;4120528;28;20162;-76
2021/08/19 01:52:24;;;;;;;3.50;2.53;;;16.60;99.90;;;16.19;96.38;101442.44;4119677;28;20523;-76
2021/08/19 01:54:26;;;;;;;3.72;2.58;;;16.50;99.90;;;16.29;95.89;101435.03;4103713;28;20049;-76
2021/08/19 01:56:27;;;;;;;4.47;2.22;;;16.60;99.90;;;16.19;96.09;101440.56;4135624;28;20030;-76
2021/08/19 01:58:28;;;;;;;6.03;3.40;;;16.50;99.90;;;16.12;96.84;101444.94;4103206;28;20426;-76
2021/08/19 02:00:29;;;;;;;4.93;3.00;;;16.50;99.90;;;16.25;96.41;101455.84;4135436;28;20030;-76
2021/08/19 02:02:30;;;;;;;4.32;2.85;;;16.50;99.90;;;16.32;95.13;101432.84;4135205;28;20019;-76
2021/08/19 02:04:31;;;;;;;3.72;2.97;;;16.50;99.90;;;16.34;94.32;101445.97;4120565;28;20030;-76
2021/08/19 02:06:32;;;;;;;5.35;3.20;;;16.50;99.90;;;16.21;95.27;101438.56;4119292;28;20099;-76
2021/08/19 02:08:33;;;;;;;4.38;2.97;;;16.50;99.90;;;16.15;95.25;101451.75;4120893;28;20034;-76
2021/08/19 02:10:36;;;;;;;3.08;2.60;;;16.50;99.90;;;15.97;97.02;101433.38;4120623;28;20026;-76
2021/08/19 02:12:37;;;;;;;3.55;2.72;;;16.40;99.90;;;15.77;97.10;101435.63;4119485;28;20538;-76
2021/08/19 02:14:38;;;;;;;4.70;3.03;;;16.40;99.90;;;15.86;97.14;101436.44;4120127;28;20039;-76
2021/08/19 02:16:39;;;;;;;4.68;3.22;;;16.30;99.90;;;15.89;96.43;101430.75;4102817;28;20120;-76
2021/08/19 02:18:40;;;;;;;5.20;3.22;;;16.30;99.90;;;15.90;97.08;101433.25;4119175;28;20030;-76
2021/08/19 02:20:41;;;;;;;5.72;3.17;;;16.30;99.90;;;15.95;95.95;101422.06;4120455;28;20085;-76
2021/08/19 02:22:42;;;;;;;5.82;3.38;;;16.30;99.90;;;15.79;97.05;101422.16;4135121;28;20093;-76
2021/08/19 02:24:43;;;;;;;5.30;2.97;;;16.20;99.90;;;15.80;98.11;101429.16;4139686;28;20410;-76
2021/08/19 02:26:44;;;;;;;5.63;3.15;;;16.20;99.90;;;15.87;98.13;101432.75;4120394;28;20059;-76
2021/08/19 02:28:45;;;;;;;5.10;3.33;;;16.10;99.90;;;15.79;98.09;101419.50;4120264;28;20106;-77
2021/08/19 02:30:46;;;;;;;4.93;2.72;;;16.20;99.90;;;15.72;98.40;101418.53;4118269;28;20451;-76
2021/08/19 02:32:52;;;;;;;4.22;3.30;;;16.10;99.90;;;15.87;97.22;101424.78;4119069;28;20089;-76
2021/08/19 02:34:55;;;;;;;6.30;3.15;;;16.10;99.90;;;15.80;98.26;101429.97;4119855;28;20082;-76
2021/08/19 02:36:56;;;;;;;4.10;2.88;;;16.10;99.90;;;15.83;97.80;101429.63;4103389;28;20066;-76
2021/08/19 02:38:57;;;;;;;4.47;3.22;;;16.10;99.90;;;15.76;98.13;101410.03;4132846;28;20077;-77
2021/08/19 02:40:58;;;;;;;3.38;2.55;;;16.10;99.90;;;15.79;96.45;101403.53;4139074;28;20482;-77
2021/08/19 02:42:59;;;;;;;2.78;2.40;;;16.10;99.90;;;15.84;97.70;101414.47;4135199;28;20018;-76
2021/08/19 02:45:00;;;;;;;5.00;3.22;;;16.10;99.90;;;15.85;97.46;101410.81;4118696;28;20047;-77
2021/08/19 02:47:01;;;;;;;4.32;2.95;;;16.10;99.90;;;15.75;97.88;101408.38;4134564;28;20030;-77
2021/08/19 02:49:02;;;;;;;5.95;2.95;;;16.10;99.90;;;15.64;98.39;101411.44;4119233;28;20066;-76
2021/08/19 02:51:03;;;;;;;4.80;3.08;;;16.00;99.90;;;15.61;96.76;101394.97;4128842;28;20078;-76
2021/08/19 02:53:04;;;;;;;6.97;2.60;;;16.00;99.90;;;15.62;97.76;101408.09;4119131;28;20058;-76
2021/08/19 02:55:07;;;;;;;4.53;3.22;;;16.00;99.90;;;15.54;98.10;101399.31;4120306;28;20062;-76
2021/08/19 02:57:07;;;;;;;5.78;2.85;;;15.90;99.90;;;15.57;98.44;101407.78;4118886;28;20034;-76
2021/08/19 02:59:08;;;;;;;5.82;3.22;;;15.90;99.90;;;15.61;98.30;101394.97;4118407;28;20030;-76
2021/08/19 03:01:09;;;;;;;6.90;3.17;;;15.90;99.90;;;15.61;98.49;101400.28;4111285;28;20030;-76
2021/08/19 03:03:10;;;;;;;3.72;2.90;;;15.90;99.90;;;15.63;98.73;101403.59;4134727;28;20105;-76
2021/08/19 03:05:11;;;;;;;6.10;3.13;;;15.90;99.90;;;15.53;99.01;101400.34;4117736;28;20530;-76
2021/08/19 03:07:13;;;;;;;4.65;3.75;;;15.90;99.90;;;15.41;99.25;101390.03;4151311;28;20528;-76
2021/08/19 03:09:14;;;;;;;5.15;3.88;;;15.80;99.90;;;15.45;98.96;101398.50;4136176;28;20033;-76
2021/08/19 03:11:15;;;;;;;2.97;2.65;;;15.80;99.90;;;15.49;99.47;101400.69;4135921;28;20026;-76
2021/08/19 03:13:16;;;;;;;4.50;3.28;;;15.80;99.90;;;15.44;99.55;101391.53;4135613;28;20030;-76
2021/08/19 03:15:17;;;;;;;5.88;2.92;;;15.80;99.90;;;15.55;99.78;101406.31;4135949;28;20037;-76
2021/08/19 03:17:19;;;;;;;5.50;3.17;;;15.80;99.90;;;15.52;99.46;101404.00;4135510;28;20042;-76
2021/08/19 03:19:20;;;;;;;6.43;2.88;;;15.90;99.90;;;15.47;99.55;101405.31;4134705;28;20393;-77
2021/08/19 03:21:21;;;;;;;3.78;2.78;;;15.80;99.90;;;15.43;99.66;101396.03;4150731;28;20053;-76
2021/08/19 03:23:23;;;;;;;4.90;3.25;;;15.80;99.90;;;15.37;99.35;101407.34;4118513;28;20149;-76
2021/08/19 03:25:25;;;;;;;5.40;3.45;;;15.80;99.90;;;15.25;99.88;101397.22;4142242;28;20027;-76
2021/08/19 03:27:31;;;;;;;4.10;3.38;;;15.80;99.90;;;15.31;99.79;101401.88;4146330;28;20034;-76
2021/08/19 03:29:32;;;;;;;3.47;2.45;;;15.70;99.90;;;15.33;99.94;101394.53;4133783;28;20173;-76
2021/08/19 03:31:33;;;;;;;6.60;3.08;;;15.70;99.90;;;15.37;99.86;101394.03;4134535;28;20486;-77
2021/08/19 03:33:37;;;;;;;3.80;2.95;;;15.70;99.90;;;15.34;99.68;101386.41;4118203;28;20086;-77
2021/08/19 03:35:38;;;;;;;3.10;2.40;;;15.80;99.90;;;15.49;99.49;101406.00;4134427;28;20089;-76
2021/08/19 03:37:40;;;;;;;4.35;2.70;;;15.80;99.90;;;15.50;98.96;101390.88;4121800;28;20038;-76
2021/08/19 03:39:42;;;;;;;5.95;2.95;;;15.80;99.90;;;15.52;98.73;101398.66;4134609;28;20446;-76
2021/08/19 03:41:43;;;;;;;5.25;2.40;;;15.80;99.90;;;15.46;98.76;101390.34;4135691;28;20058;-76
2021/08/19 03:43:45;;;;;;;7.78;3.80;;;15.90;99.90;;;15.49;98.75;101400.69;4138056;28;20025;-76
2021/08/19 03:45:50;;;;;;;3.65;3.03;;;15.80;99.90;;;15.52;98.85;101393.34;4137669;28;20046;-76
2021/08/19 03:47:51;;;;;;;5.45;3.78;;;15.80;99.90;;;15.47;98.90;101386.72;4137606;28;20081;-76
2021/08/19 03:49:53;;;;;;;9.07;2.88;;;15.90;99.90;;;15.54;98.60;101394.00;4138830;28;20062;-76
2021/08/19 03:51:54;;;;;;;3.22;2.65;;;15.90;99.90;;;15.59;98.81;101399.66;4138513;28;20033;-76
2021/08/19 03:53:56;;;;;;;3.63;2.58;;;15.90;99.90;;;15.60;99.09;101401.28;4138938;28;20030;-76
2021/08/19 03:55:57;;;;;;;4.13;2.60;;;15.90;99.90;;;15.61;99.03;101408.28;4138788;28;20034;-76
2021/08/19 03:57:58;;;;;;;4.38;2.60;;;15.90;99.90;;;15.53;98.81;101389.69;4138739;28;20025;-77
2021/08/19 03:59:59;;;;;;;5.88;3.40;;;15.90;99.90;;;15.38;98.80;101390.38;4138036;28;20022;-77
2021/08/19 04:02:00;;;;;;;4.20;2.30;;;15.90;99.90;;;15.38;99.38;101389.56;4138396;28;20050;-77
2021/08/19 04:04:01;;;;;;;3.00;2.55;;;15.90;99.90;;;15.49;99.20;101411.31;4137167;28;20018;-77
2021/08/19 04:06:02;;;;;;;3.95;2.63;;;15.80;99.90;;;15.46;99.44;101405.47;4138343;28;20022;-76
2021/08/19 04:08:03;;;;;;;3.92;2.97;;;15.80;99.90;;;15.35;99.39;101382.72;4153456;28;20084;-76
2021/08/19 04:10:05;;;;;;;5.45;3.20;;;15.80;99.90;;;15.50;99.53;101394.34;4121309;28;20401;-77
2021/08/19 04:12:06;;;;;;;3.53;2.75;;;15.80;99.90;;;15.53;99.15;101400.34;4153704;28;20033;-76
2021/08/19 04:14:07;;;;;;;3.83;2.80;;;15.90;99.90;;;15.57;98.83;101396.31;4120768;28;20177;-76
2021/08/19 04:16:08;;;;;;;15.57;3.40;;;15.80;99.90;;;15.56;98.75;101397.34;4124173;28;20034;-76
2021/08/19 04:18:10;;;;;;;5.50;3.05;;;15.90;99.90;;;15.51;98.80;101395.19;4125671;28;20398;-76
2021/08/19 04:20:12;;;;;;;3.17;2.47;;;15.90;99.90;;;15.53;99.33;101393.16;4120760;28;20207;-76
2021/08/19 04:22:13;;;;;;;3.50;2.47;;;15.90;99.90;;;15.42;98.91;101375.75;4120995;28;20046;-76
2021/08/19 04:24:14;;;;;;;4.35;3.00;;;15.90;99.90;;;15.54;99.16;101404.63;4129441;28;20360;-76
2021/08/19 04:26:14;;;;;;;4.07;3.05;;;15.90;99.90;;;15.48;99.38;101393.69;4125443;28;20022;-76
2021/08/19 04:28:15;;;;;;;5.70;3.20;;;15.80;99.90;;;15.55;99.20;101395.66;4114554;28;20034;-76
2021/08/19 04:30:16;;;;;;;3.67;2.40;;;15.90;99.90;;;15.55;99.06;101393.00;4130057;28;20126;-76
2021/08/19 04:32:17;;;;;;;4.05;2.90;;;15.90;99.90;;;15.49;99.21;101395.38;4137269;28;20434;-76
2021/08/19 04:34:18;;;;;;;4.75;2.58;;;15.90;99.90;;;15.48;99.09;101395.53;4123906;28;20030;-76
2021/08/19 04:36:19;;;;;;;3.20;2.60;;;15.90;99.90;;;15.56;99.14;101407.97;4146983;28;20018;-76
2021/08/19 04:38:21;;;;;;;3.42;2.33;;;15.90;99.90;;;15.46;99.11;101394.84;4122277;28;20031;-77
2021/08/19 04:40:21;;;;;;;8.27;3.28;;;15.90;99.90;;;15.50;99.23;101402.31;4136995;28;20030;-76
2021/08/19 04:42:24;;;;;;;4.28;3.05;;;15.80;99.90;;;15.42;99.14;101396.16;4136364;28;20037;-77
2021/08/19 04:44:25;;;;;;;5.43;2.40;;;15.80;99.90;;;15.38;99.46;101400.19;4120453;28;20038;-77
2021/08/19 04:46:26;;;;;;;4.28;2.92;;;15.80;99.90;;;15.31;99.49;101392.06;4130115;28;20030;-77
2021/08/19 04:48:27;;;;;;;5.45;3.17;;;15.80;99.90;;;15.43;99.24;101406.66;4134514;28;20478;-77
2021/08/19 04:50:28;;;;;;;4.53;2.75;;;15.80;99.90;;;15.42;99.40;101404.16;4136956;28;20026;-77
2021/08/19 04:52:29;;;;;;;3.58;2.33;;;15.80;99.90;;;15.38;99.45;101402.84;4153113;28;20030;-76
2021/08/19 04:54:30;;;;;;;4.15;2.78;;;15.80;99.90;;;15.48;99.10;101403.50;4137378;28;20057;-77
2021/08/19 04:56:38;;;;;;;5.13;2.95;;;15.80;99.90;;;15.43;99.33;101404.00;4136698;28;20038;-76
2021/08/19 04:58:39;;;;;;;2.58;2.08;;;15.80;99.90;;;15.43;99.51;101411.97;4117523;28;20399;-77
2021/08/19 05:00:40;;;;;;;3.88;2.72;;;15.80;99.90;;;15.39;99.71;101405.31;4126902;28;20030;-77
2021/08/19 05:02:41;;;;;;;2.50;2.30;;;15.80;99.90;;;15.35;99.84;101411.16;4136823;28;20026;-76
2021/08/19 05:04:42;;;;;;;4.75;3.17;;;15.80;99.90;;;15.35;100.00;101408.50;4136650;28;20505;-76
2021/08/19 05:06:43;;;;;;;3.17;2.33;;;15.70;99.90;;;15.37;100.00;101406.50;4120440;28;20026;-76
2021/08/19 05:08:43;;;;;;;5.40;2.60;;;15.70;99.90;;;15.24;99.94;101400.88;4137705;28;20109;-76
2021/08/19 05:10:44;;;;;;;3.95;2.55;;;15.70;99.90;;;15.27;100.00;101409.34;4137437;28;20053;-76
2021/08/19 05:12:45;;;;;;;6.22;2.38;;;15.70;99.90;;;15.29;100.00;101403.88;4137650;28;20026;-76
2021/08/19 05:14:46;;;;;;;3.13;2.65;;;15.70;99.90;;;15.26;100.00;101397.03;4137383;28;20045;-76
2021/08/19 05:16:47;;;;;;;3.63;2.50;;;15.70;99.90;;;15.29;100.00;101396.69;4137557;28;20042;-76
2021/08/19 05:18:48;;;;;;;3.33;2.53;;;15.80;99.90;;;15.38;100.00;101419.59;4136383;28;20094;-77
2021/08/19 05:20:49;;;;;;;3.90;2.50;;;15.70;99.90;;;15.32;100.00;101412.31;4136234;28;20041;-77
2021/08/19 05:22:50;;;;;;;4.50;3.03;;;15.70;99.90;;;15.26;100.00;101405.00;4136438;28;20549;-77
2021/08/19 05:24:51;;;;;;;4.22;3.25;;;15.70;99.90;;;15.28;100.00;101408.34;4131020;28;20023;-76
2021/08/19 05:26:52;;;;;;;4.60;3.10;;;15.70;99.90;;;15.26;99.90;101399.69;4121349;28;20546;-76
2021/08/19 05:28:53;;;;;;;3.30;2.47;;;15.70;99.90;;;15.25;100.00;101414.00;4119324;28;20038;-76
2021/08/19 05:30:54;;;;;;;4.45;2.90;;;15.70;99.90;;;15.27;100.00;101408.50;4120897;28;21302;-77
2021/08/19 05:32:55;;;;;;;5.75;3.55;;;15.70;99.90;;;15.36;99.41;101410.16;4119829;28;20038;-76
2021/08/19 05:34:56;;;;;;;3.67;2.90;;;15.70;99.90;;;15.38;99.60;101419.59;4143900;28;20089;-76
2021/08/19 05:36:57;;;;;;;3.90;3.00;;;15.80;99.90;;;15.36;99.46;101416.31;4131943;28;20045;-75
2021/08/19 05:38:58;;;;;;;5.35;3.33;;;15.80;99.90;;;15.31;99.80;101413.34;4135898;28;20022;-78
2021/08/19 05:40:59;;;;;;;4.47;3.25;;;15.80;99.90;;;15.42;99.41;101426.25;4131580;28;20038;-78
2021/08/19 05:43:01;;;;;;;4.28;3.10;;;15.80;99.90;;;15.62;97.05;101415.25;4111023;28;20026;-77
2021/08/19 05:45:03;;;;;;;6.40;3.47;;;15.90;99.90;;;15.67;96.90;101423.53;4108770;28;20055;-77
2021/08/19 05:47:07;;;;;;;3.42;2.40;;;15.90;99.90;;;15.68;97.55;101430.53;4134254;28;20030;-77
2021/08/19 05:49:08;;;;;;;3.70;2.50;;;15.90;99.90;;;15.58;97.18;101411.28;4135822;28;20034;-78
2021/08/19 05:51:10;;;;;;;3.42;2.55;;;16.00;99.90;;;15.56;96.64;101405.31;4111723;28;20035;-77
2021/08/19 05:53:11;;;;;;;4.57;2.60;;;16.00;99.90;;;15.67;96.68;101421.72;4114696;28;20030;-76
2021/08/19 05:55:12;;;;;;;4.25;2.70;;;16.00;99.90;;;15.83;96.09;101434.13;4136692;28;20049;-76
2021/08/19 05:57:16;;;;;;;4.32;3.13;;;16.10;99.90;;;15.83;94.61;101410.19;4136948;28;20030;-76
2021/08/19 05:59:17;;;;;;;;;;;16.10;99.90;;;15.75;94.03;101420.84;4136844;28;20026;-75
2021/08/19 06:01:18;;;;;;;4.82;2.30;;;16.10;99.90;;;15.72;93.21;101411.38;4119415;28;19917;-77
2021/08/19 06:03:20;;;;;;;3.25;2.42;;;16.10;99.90;;;15.64;93.23;101410.59;4120496;28;20113;-77
2021/08/19 06:05:21;;;;;;;2.80;2.30;;;16.10;99.90;;;15.57;93.53;101405.13;4119828;28;20030;-78
2021/08/19 06:07:22;;;;;;;4.50;2.60;;;16.10;99.90;;;15.63;93.12;101414.25;4135420;28;20042;-76
2021/08/19 06:09:23;;;;;;;3.85;2.75;;;16.10;99.90;;;15.65;92.92;101430.88;4120540;28;20026;-79
2021/08/19 06:11:23;;;;;;;3.17;2.47;;;16.00;99.90;;;15.64;91.54;101419.41;4119423;28;20031;-81
2021/08/19 06:13:24;;;;;;;3.78;2.80;;;16.00;99.90;;;15.71;91.23;101419.56;4118977;28;20023;-79
2021/08/19 06:15:26;;;;;;;2.70;2.13;;;16.00;99.90;;;15.61;91.63;101405.63;4119411;28;20097;-78
2021/08/19 06:17:26;;;;;;;3.15;2.40;;;16.00;99.90;;;15.61;91.28;101402.97;4119336;28;20035;-77
2021/08/19 06:19:27;;;;;;;5.15;2.30;;;15.90;99.90;;;15.47;91.38;101394.69;4131938;28;20026;-77
2021/08/19 06:21:28;;;;;;;2.22;1.73;;;15.90;99.90;;;15.49;91.97;101413.16;4120536;28;20031;-77
2021/08/19 06:23:29;;;;;;;3.05;2.25;;;15.80;99.90;;;15.39;92.25;101401.84;4120059;28;20543;-77
2021/08/19 06:25:32;;;;;;;3.40;2.55;;;15.80;99.90;;;15.33;90.05;101378.59;4125266;28;20115;-76
2021/08/19 06:27:33;;;;;;;5.65;2.40;;;15.80;99.90;;;15.60;88.09;101406.59;4135362;28;20037;-77
2021/08/19 06:29:34;;;;;;;10.10;7.85;;;15.80;99.90;;;15.46;89.13;101406.31;4119847;28;20039;-75
2021/08/19 06:31:35;;;;;;;3.33;2.45;;;15.80;99.90;;;15.41;89.00;101413.94;4117951;28;20031;-74
2021/08/19 06:33:36;;;;;;;3.63;2.50;;;15.70;99.90;;;15.45;88.38;101409.13;4134940;28;20579;-74
2021/08/19 06:35:37;;;;;;;5.80;2.60;;;15.70;99.90;;;15.27;89.07;101404.03;4133554;28;20037;-75
2021/08/19 06:37:39;;;;;;;3.97;2.38;;;15.60;99.90;;;15.34;87.03;101406.84;4118972;28;20033;-75
2021/08/19 06:39:40;;;;;;;3.53;2.40;;;15.60;99.90;;;15.32;87.18;101409.66;4134780;28;20026;-75
2021/08/19 06:41:41;;;;;;;5.78;2.65;;;15.50;99.90;;;15.50;85.69;101412.16;4118499;28;20483;-75
2021/08/19 06:43:41;;;;;;;3.72;2.63;;;15.60;99.90;;;15.55;84.76;101414.28;4118429;28;20071;-75
2021/08/19 06:45:42;;;;;;;2.78;2.25;;;15.60;99.90;;;15.48;83.71;101401.66;4134794;28;20046;-75
2021/08/19 06:47:43;;;;;;;2.88;2.42;;;15.60;99.90;;;15.45;84.34;101404.63;4108435;28;20451;-75
2021/08/19 06:49:45;;;;;;;4.22;2.63;;;15.70;99.90;;;15.34;84.08;101398.88;4126208;28;20109;-74
2021/08/19 06:51:46;;;;;;;3.65;2.03;;;15.70;99.90;;;15.45;84.01;101407.28;4115044;28;20042;-75
2021/08/19 06:53:47;;;;;;;5.45;2.42;;;15.60;99.90;;;15.50;82.83;101412.94;4118533;28;20134;-74
2021/08/19 06:55:49;;;;;;;5.40;2.58;;;15.70;99.90;;;15.43;81.15;101401.34;4135054;28;20096;-75
2021/08/19 06:57:50;;;;;;;2.72;2.17;;;15.70;99.90;;;15.36;80.85;101403.00;4102534;28;20027;-75
2021/08/19 06:59:51;;;;;;;2.50;2.10;;;15.70;99.90;;;15.29;82.22;101407.34;4113912;28;20541;-75
2021/08/19 07:01:52;;;;;;;3.58;2.03;;;15.70;99.90;;;15.33;82.59;101400.69;4134043;28;20069;-75
2021/08/19 07:03:53;;;;;;;4.00;2.53;;;15.60;99.90;;;15.47;80.82;101400.00;4134617;28;20097;-75
2021/08/19 07:05:54;;;;;;;2.47;1.95;;;15.70;99.90;;;15.42;81.49;101394.34;4118771;28;20078;-75
2021/08/19 07:07:59;;;;;;;2.83;1.80;;;15.70;99.90;;;15.41;82.51;101405.97;4134662;28;20421;-74
2021/08/19 07:10:03;;;;;;;6.45;2.67;;;15.70;99.90;;;15.55;80.62;101403.66;4134746;28;20034;-75
2021/08/19 07:12:04;;;;;;;3.58;2.42;;;15.70;99.90;;;15.52;81.27;101404.00;4118840;28;20422;-74
2021/08/19 07:14:05;;;;;;;5.13;2.60;;;15.80;99.90;;;15.48;82.23;101409.66;4118509;28;20039;-74
2021/08/19 07:16:06;;;;;;;2.75;2.20;;;15.80;99.90;;;15.45;81.76;101396.66;4119874;28;20034;-74
2021/08/19 07:18:08;;;;;;;3.95;2.83;;;15.80;99.90;;;15.45;81.13;101391.34;4118417;28;20035;-75
2021/08/19 07:20:10;;;;;;;2.95;2.00;;;15.80;99.90;;;15.70;80.17;101409.91;4134368;28;20022;-74
2021/08/19 07:22:10;;;;;;;4.15;2.17;;;16.00;99.90;;;15.78;80.08;101401.88;4134357;28;20095;-74
2021/08/19 07:24:12;;;;;;;3.25;2.30;;;16.00;99.90;;;15.84;80.25;101394.03;4112321;28;20043;-74
2021/08/19 07:26:13;;;;;;;2.10;1.63;;;16.20;99.90;;;16.04;80.39;101399.72;4135207;28;20018;-74
2021/08/19 07:28:14;;;;;;;2.42;1.95;;;16.40;99.90;;;16.22;80.17;101404.81;4118328;28;20062;-74
2021/08/19 07:30:17;;;;;;;2.97;2.35;;;16.70;99.90;;;16.34;78.54;101398.88;4134398;28;20490;-74
2021/08/19 07:32:20;;;;;;;2.38;1.70;;;16.90;99.90;;;16.48;78.72;101406.13;4118527;28;20031;-74
2021/08/19 07:34:21;;;;;;;7.85;1.88;;;17.00;99.90;;;16.55;78.47;101404.41;4102554;28;20570;-74
2021/08/19 07:36:22;;;;;;;4.68;2.53;;;17.20;99.90;;;16.42;77.50;101404.16;4124611;28;20077;-74
2021/08/19 07:38:22;;;;;;;3.38;2.40;;;17.20;99.90;;;16.36;77.98;101406.69;4134464;28;20033;-75
2021/08/19 07:40:29;;;;;;;3.20;2.00;;;17.10;99.90;;;16.37;77.93;101409.16;4134494;28;20034;-75
2021/08/19 07:42:30;;;;;;;2.17;1.70;;;17.00;99.90;;;16.35;78.27;101413.84;4118171;28;20105;-74
2021/08/19 07:44:31;;;;;;;3.58;2.38;;;16.90;99.90;;;16.36;77.23;101406.69;4134063;28;20085;-75
2021/08/19 07:46:33;;;;;;;3.00;1.83;;;16.90;99.90;;;16.35;77.41;101413.84;4119563;28;20058;-75
2021/08/19 07:48:34;;;;;;;2.90;2.03;;;16.90;99.90;;;16.36;77.40;101399.53;4118239;28;20033;-74
2021/08/19 07:50:36;;;;;;;4.70;2.97;;;17.00;99.90;;;16.35;76.75;101387.22;4119450;28;20054;-75
2021/08/19 07:52:38;;;;;;;5.13;2.63;;;17.10;99.90;;;16.51;75.86;101404.91;4119684;28;20042;-74
2021/08/19 07:54:39;;;;;;;3.95;2.08;;;17.30;99.90;;;16.80;74.71;101404.19;4119660;28;20026;-74
2021/08/19 07:56:40;;;;;;;3.92;2.38;;;17.50;99.90;;;17.04;74.17;101403.97;4118275;28;20098;-74
2021/08/19 07:58:41;;;;;;;4.10;2.17;;;17.70;99.90;;;17.25;74.35;101397.94;4119289;28;20505;-74
2021/08/19 08:00:42;;;;;;;3.72;2.08;;;17.90;99.90;;;17.52;72.48;101392.78;4119217;28;20050;-75
2021/08/19 08:02:43;;;;;;;4.32;2.15;;;18.10;99.90;;;17.56;72.34;101394.06;4119318;28;20025;-75
2021/08/19 08:04:44;;;;;;;2.78;2.00;;;18.20;99.90;;;17.61;73.48;101407.72;4119390;28;20050;-74
2021/08/19 08:06:45;;;;;;;6.35;3.20;;;18.40;99.90;;;17.57;72.36;101402.91;4119179;28;20026;-74
2021/08/19 08:08:45;;;;;;;6.45;3.00;;;18.50;99.90;;;17.59;72.37;101401.72;4119340;28;20035;-74
2021/08/19 08:10:46;;;;;;;4.57;2.50;;;18.60;99.90;;;17.83;71.53;101405.09;4119469;28;20125;-75
2021/08/19 08:12:47;;;;;;;2.53;1.80;;;18.70;99.90;;;17.90;71.12;101396.16;4118355;28;20039;-74
2021/08/19 08:14:50;;;;;;;2.63;2.42;;;18.70;99.90;;;18.08;71.49;101401.06;4118323;28;20023;-74
2021/08/19 08:16:51;;;;;;;3.67;2.63;;;18.80;99.90;;;17.99;69.62;101389.69;4134207;28;20027;-75
2021/08/19 08:18:52;;;;;;;4.13;2.45;;;19.00;99.90;;;18.07;70.17;101402.91;4118199;28;20027;-74
2021/08/19 08:20:54;;;;;;;4.57;2.47;;;19.10;99.90;;;17.97;71.16;101409.56;4134090;28;20054;-75
2021/08/19 08:22:55;;;;;;;6.97;2.83;;;19.20;99.90;;;17.95;70.89;101409.75;4118146;28;20105;-74
2021/08/19 08:24:55;;;;;;;3.35;2.15;;;19.20;99.90;;;18.30;70.63;101407.25;4123446;28;20075;-74